Time;durP1;ratioP1;P1;durP2;ratioP2;P2;SDS_P1;SDS_P2;PMS_P1;PMS_P2;Temp;Humidity;BMP_temperature;BMP_pressure;BME280_temperature;BME280_humidity;BME280_pressure;Samples;Min_cycle;Max_cycle;Signal;HPM_P1;HPM_P2
2022/04/15 00:01:48;;;;;;;;;;;;;;;4.11;95.59;100246.09;6245270;23;19973;-82
2022/04/15 00:04:13;;;;;;;;;;;;;;;4.12;95.43;100237.34;6244364;23;19922;-82
2022/04/15 00:06:39;;;;;;;;;;;;;;;4.11;95.52;100240.00;6242931;23;19959;-83
2022/04/15 00:09:04;;;;;;;;;;;;;;;4.09;95.29;100241.78;6217454;23;19916;-82
2022/04/15 00:11:31;;;;;;;;;;;;;;;4.08;95.14;100248.75;6217711;23;19918;-82
2022/04/15 00:13:56;;;;;;;;;;;;;;;4.05;94.83;100246.16;6215773;23;19912;-82
2022/04/15 00:16:21;;;;;;;;;;;;;;;4.04;94.59;100239.19;6244761;23;19938;-82
2022/04/15 00:18:47;;;;;;;;;;;;;;;4.07;94.29;100238.28;6217017;23;19915;-81
2022/04/15 00:21:12;;;;;;;;;;;;;;;4.05;94.30;100238.28;6217054;23;19965;-82
2022/04/15 00:23:38;;;;;;;;;;;;;;;4.03;94.26;100242.69;6217843;23;20239;-81
2022/04/15 00:26:04;;;;;;;;;;;;;;;4.05;94.12;100240.91;6245092;23;19919;-82
2022/04/15 00:28:29;;;;;;;;;;;;;;;4.03;93.83;100237.44;6215643;23;19919;-82
2022/04/15 00:30:54;;;;;;;;;;;;;;;4.02;93.92;100240.97;6244556;23;19986;-83
2022/04/15 03:25:35;;;;;;;;;;;;;;;7.22;100.00;100266.84;6272014;22;19925;-78
2022/04/15 03:28:00;;;;;;;;;;;;;;;7.23;100.00;100273.84;6276724;22;19951;-81
2022/04/15 03:30:26;;;;;;;;;;;;;;;7.25;100.00;100266.78;6276534;22;19926;-78
2022/04/15 03:32:52;;;;;;;;;;;;;;;7.26;100.00;100263.25;6249575;22;19918;-81
2022/04/15 03:35:21;;;;;;;;;;;;;;;7.26;100.00;100268.53;6249528;22;19918;-81
2022/04/15 03:37:50;;;;;;;;;;;;;;;7.28;100.00;100276.41;6276716;22;19993;-79
2022/04/15 03:40:15;;;;;;;;;;;;;;;7.29;100.00;100272.84;6275046;22;19911;-78
2022/04/15 03:42:44;;;;;;;;;;;;;;;7.28;100.00;100276.41;6276459;22;20056;-79
2022/04/15 03:45:11;;;;;;;;;;;;;;;7.30;100.00;100273.72;6276697;22;20575;-79
2022/04/15 03:47:36;;;;;;;;;;;;;;;7.32;100.00;100282.47;6276479;22;19911;-79
2022/04/15 03:50:02;;;;;;;;;;;;;;;7.32;100.00;100275.41;6249380;22;19988;-78
2022/04/15 03:52:27;;;;;;;;;;;;;;;7.35;100.00;100283.25;6276457;22;20117;-81
2022/04/15 03:54:53;;;;;;;;;;;;;;;7.36;100.00;100290.28;6274998;22;19912;-82
2022/04/15 03:57:18;;;;;;;;;;;;;;;6.71;100.00;100293.34;6276324;22;19911;-82
2022/04/15 03:59:43;;;;;;;;;;;;;;;6.04;100.00;100288.38;6276362;22;19916;-81
2022/04/15 04:02:08;;;;;;;;;;;;;;;5.86;100.00;100288.66;6276754;22;20226;-78
2022/04/15 04:04:34;;;;;;;;;;;;;;;5.77;100.00;100289.63;6276293;22;20267;-79
2022/04/15 04:06:59;;;;;;;;;;;;;;;5.74;100.00;100285.28;6276592;22;19923;-78
2022/04/15 04:09:24;;;;;;;;;;;;;;;5.94;100.00;100292.03;6274598;22;19915;-79
2022/04/15 04:11:49;;;;;;;;;;;;;;;5.86;100.00;100297.41;6249242;22;19911;-79
2022/04/15 04:14:14;;;;;;;;;;;;;;;5.75;100.00;100297.56;6276122;22;19922;-79
2022/04/15 04:16:40;;;;;;;;;;;;;;;5.69;100.00;100292.38;6276160;22;19919;-80
2022/04/15 04:19:05;;;;;;;;;;;;;;;5.61;100.00;100294.25;6276151;22;19997;-79
2022/04/15 04:21:33;;;;;;;;;;;;;;;5.55;100.00;100289.97;6276191;22;20344;-80
2022/04/15 04:23:58;;;;;;;;;;;;;;;5.50;100.00;100297.03;6266915;22;19911;-81
2022/04/15 04:26:24;;;;;;;;;;;;;;;5.44;100.00;100294.47;6275887;22;19942;-79
2022/04/15 04:28:49;;;;;;;;;;;;;;;5.38;100.00;100292.81;6276421;22;20000;-79
2022/04/15 04:31:14;;;;;;;;;;;;;;;5.36;100.00;100299.88;6248962;22;19942;-81
2022/04/15 04:33:39;;;;;;;;;;;;;;;5.32;100.00;100306.03;6274476;22;19915;-79
2022/04/15 04:36:05;;;;;;;;;;;;;;;5.28;100.00;100302.59;6274495;22;20338;-80
2022/04/15 04:38:31;;;;;;;;;;;;;;;5.26;100.00;100309.63;6247210;22;20251;-81
2022/04/15 04:40:56;;;;;;;;;;;;;;;5.22;100.00;100302.66;6276058;22;19912;-78
2022/04/15 04:43:22;;;;;;;;;;;;;;;5.21;100.00;100308.78;6275700;22;19918;-79
2022/04/15 04:45:48;;;;;;;;;;;;;;;5.17;100.00;100309.75;6275803;22;20220;-79
2022/04/15 04:48:13;;;;;;;;;;;;;;;5.18;100.00;100311.47;6276021;22;19911;-79
2022/04/15 12:32:29;;;;;;;;;;;;;;;4.16;93.81;100370.25;6311762;22;19934;-82
2022/04/15 12:34:54;;;;;;;;;;;;;;;4.15;93.66;100363.25;6307026;22;19946;-82
2022/04/15 12:37:35;;;;;;;;;;;;;;;4.12;93.65;100355.38;6305486;22;19915;-83
2022/04/15 12:40:01;;;;;;;;;;;;;;;4.13;93.48;100357.13;6306569;22;19957;-83
2022/04/15 12:42:27;;;;;;;;;;;;;;;4.12;93.51;100355.38;6279187;22;20298;-83
2022/04/15 12:44:52;;;;;;;;;;;;;;;4.16;93.59;100359.75;6305299;22;19950;-82
2022/04/15 12:47:18;;;;;;;;;;;;;;;4.13;93.55;100349.28;6303800;22;19915;-82
2022/04/15 12:49:43;;;;;;;;;;;;;;;4.26;93.91;100351.78;6279446;22;19914;-83
2022/04/15 12:52:16;;;;;;;;;;;;;;;4.50;95.81;100346.34;6279517;22;20558;-84
2022/04/15 12:54:58;;;;;;;;;;;;;;;4.71;98.31;100358.38;6279162;22;19922;-82
2022/04/15 12:57:30;;;;;;;;;;;;;;;5.20;100.00;100351.75;6279156;22;19914;-82
2022/04/15 12:59:56;;;;;;;;;;;;;;;5.59;100.00;100346.84;6278554;22;19911;-84
2022/04/15 13:02:23;;;;;;;;;;;;;;;5.82;100.00;100340.41;6277864;22;19921;-81
2022/04/15 13:04:52;;;;;;;;;;;;;;;5.95;100.00;100341.09;6279359;22;19961;-82
2022/04/15 13:07:18;;;;;;;;;;;;;;;6.00;100.00;100332.28;6279322;22;19911;-83
2022/04/15 13:09:43;;;;;;;;;;;;;;;6.07;100.00;100335.69;6279055;22;19954;-83
2022/04/15 13:12:09;;;;;;;;;;;;;;;6.12;100.00;100332.97;6279292;22;19942;-81
2022/04/15 13:14:34;;;;;;;;;;;;;;;6.17;100.00;100333.75;6274079;22;19961;-82
2022/04/15 13:16:59;;;;;;;;;;;;;;;6.24;100.00;100332.78;6303476;22;19993;-83
2022/04/15 13:19:24;;;;;;;;;;;;;;;6.29;100.00;100323.06;6306424;22;19915;-82
2022/04/15 13:21:50;;;;;;;;;;;;;;;6.30;100.00;100321.28;6273991;22;19918;-82
2022/04/15 13:24:15;;;;;;;;;;;;;;;6.34;100.00;100323.84;6277447;22;19915;-84
2022/04/15 13:26:40;;;;;;;;;;;;;;;6.37;100.00;100325.56;6306022;22;19999;-85
2022/04/15 13:29:05;;;;;;;;;;;;;;;6.40;100.00;100316.72;6279261;22;20334;-84
2022/04/15 13:31:31;;;;;;;;;;;;;;;6.45;100.00;100325.44;6304958;22;19911;-82
2022/04/15 13:33:56;;;;;;;;;;;;;;;6.51;100.00;100325.28;6322534;22;20207;-83
2022/04/15 13:36:21;;;;;;;;;;;;;;;6.52;100.00;100319.16;6278894;22;19911;-83
2022/04/15 13:38:46;;;;;;;;;;;;;;;6.55;100.00;100325.22;6278909;22;19910;-82
2022/04/15 13:41:14;;;;;;;;;;;;;;;6.59;100.00;100323.41;6306517;22;19994;-84
2022/04/15 13:43:39;;;;;;;;;;;;;;;6.62;100.00;100320.75;6278848;22;19964;-85
2022/04/15 13:46:05;;;;;;;;;;;;;;;6.64;100.00;100313.66;6305469;22;19914;-83
2022/04/15 13:48:30;;;;;;;;;;;;;;;6.67;100.00;100312.72;6278434;22;20273;-82
2022/04/15 13:50:55;;;;;;;;;;;;;;;6.69;100.00;100316.22;6306353;22;19989;-81
2022/04/15 13:58:50;;;;;;;;;;;;;;;6.77;100.00;100314.31;6306308;22;19921;-82
2022/04/15 14:01:26;;;;;;;;;;;;;;;6.80;100.00;100316.03;6304665;22;19911;-81
2022/04/15 14:03:52;;;;;;;;;;;;;;;6.85;100.00;100315.03;6306107;22;19990;-82
2022/04/15 14:06:17;;;;;;;;;;;;;;;6.89;100.00;100315.81;6306354;22;20305;-82
2022/04/15 14:08:42;;;;;;;;;;;;;;;6.89;100.00;100310.56;6278904;22;19918;-84
2022/04/15 14:11:08;;;;;;;;;;;;;;;6.89;100.00;100308.81;6306604;22;19915;-84
2022/04/15 14:13:35;;;;;;;;;;;;;;;6.91;100.00;100311.41;6306262;22;19919;-84
2022/04/15 14:16:00;;;;;;;;;;;;;;;6.98;100.00;100302.47;6278858;22;19965;-83
2022/04/15 14:18:26;;;;;;;;;;;;;;;6.98;100.00;100307.75;6277391;22;20288;-82
2022/04/15 14:20:52;;;;;;;;;;;;;;;6.99;100.00;100306.88;6278758;22;19907;-82
2022/04/15 14:23:17;;;;;;;;;;;;;;;7.00;100.00;100303.31;6306349;22;19922;-82
2022/04/15 14:25:43;;;;;;;;;;;;;;;7.02;100.00;100303.28;6278872;22;20000;-82
2022/04/15 14:28:08;;;;;;;;;;;;;;;6.22;100.00;100302.97;6278984;22;19907;-83
2022/04/15 14:30:33;;;;;;;;;;;;;;;5.75;100.00;100317.72;6278818;22;19915;-85
2022/04/15 14:32:59;;;;;;;;;;;;;;;5.59;100.00;100307.41;6304592;22;19921;-84
2022/04/15 14:35:24;;;;;;;;;;;;;;;5.48;100.00;100311.97;6307160;22;19910;-83
2022/04/15 14:37:50;;;;;;;;;;;;;;;5.39;100.00;100317.34;6275606;22;20340;-83
2022/04/15 14:40:16;;;;;;;;;;;;;;;5.32;100.00;100308.66;6303206;22;19914;-83
2022/04/15 14:42:41;;;;;;;;;;;;;;;5.27;100.00;100307.88;6280499;22;19911;-84
2022/04/15 14:45:07;;;;;;;;;;;;;;;5.26;100.00;100309.63;6302594;22;20219;-82
2022/04/15 14:47:32;;;;;;;;;;;;;;;5.23;100.00;100308.78;6278890;22;19943;-82
2022/04/15 14:49:58;;;;;;;;;;;;;;;5.18;100.00;100300.94;6280343;22;19922;-83
2022/04/15 14:52:23;;;;;;;;;;;;;;;5.15;100.00;100308.88;6306403;22;19911;-84
2022/04/15 14:54:51;;;;;;;;;;;;;;;5.14;100.00;100301.91;6307745;22;19919;-82
2022/04/15 14:57:16;;;;;;;;;;;;;;;5.09;100.00;100301.94;6276279;22;20238;-82
2022/04/15 14:59:41;;;;;;;;;;;;;;;5.06;100.00;100302.00;6307124;22;19915;-84
2022/04/15 15:02:07;;;;;;;;;;;;;;;5.01;100.00;100302.91;6305861;22;19918;-83
2022/04/15 15:04:32;;;;;;;;;;;;;;;4.99;100.00;100302.94;6279937;22;19919;-82
2022/04/15 15:06:58;;;;;;;;;;;;;;;4.96;100.00;100300.34;6307622;22;20373;-83
2022/04/15 15:09:23;;;;;;;;;;;;;;;5.04;100.00;100302.88;6307659;22;19921;-82
2022/04/15 15:11:48;;;;;;;;;;;;;;;4.97;100.00;100298.59;6305967;22;19918;-83
2022/04/15 15:14:14;;;;;;;;;;;;;;;4.91;100.00;100305.66;6275217;22;20011;-82
2022/04/15 15:16:39;;;;;;;;;;;;;;;4.88;100.00;100297.81;6306038;22;19915;-85
2022/04/15 15:19:05;;;;;;;;;;;;;;;4.88;100.00;100297.81;6307421;22;19917;-83
2022/04/15 15:21:30;;;;;;;;;;;;;;;4.91;100.00;100296.91;6305108;22;19915;-83
2022/04/15 15:32:07;;;;;;;;;;;;;;;4.78;100.00;100296.16;6304928;22;19918;-83
2022/04/15 15:34:32;;;;;;;;;;;;;;;4.77;100.00;100289.19;6278448;22;19915;-81
2022/04/15 15:36:58;;;;;;;;;;;;;;;4.73;100.00;100292.72;6321575;22;19921;-85
2022/04/15 15:39:23;;;;;;;;;;;;;;;4.75;100.00;100296.22;6322355;22;19915;-83
2022/04/15 15:41:49;;;;;;;;;;;;;;;4.72;100.00;100296.22;6297350;22;20220;-83
2022/04/15 15:44:14;;;;;;;;;;;;;;;4.75;100.00;100293.56;6331743;22;19919;-83
2022/04/15 15:46:41;;;;;;;;;;;;;;;4.74;100.00;100299.75;6295906;22;19910;-83
2022/04/15 15:49:06;;;;;;;;;;;;;;;4.77;100.00;100299.69;6307389;22;19915;-84
2022/04/15 15:51:31;;;;;;;;;;;;;;;4.72;100.00;100299.75;6322184;22;19911;-82
2022/04/15 15:53:57;;;;;;;;;;;;;;;4.82;100.00;100297.88;6278701;22;19914;-86
2022/04/15 15:56:22;;;;;;;;;;;;;;;4.80;100.00;100299.63;6322138;22;20410;-82
2022/04/15 15:58:47;;;;;;;;;;;;;;;4.72;99.64;100301.50;6279662;22;19968;-82
2022/04/15 16:01:12;;;;;;;;;;;;;;;4.73;99.09;100305.84;6296119;22;19922;-83
2022/04/15 16:03:38;;;;;;;;;;;;;;;4.64;98.52;100304.22;6297430;22;19911;-84
2022/04/15 16:06:03;;;;;;;;;;;;;;;4.65;98.19;100305.06;6331687;22;19919;-83
2022/04/15 16:08:28;;;;;;;;;;;;;;;4.59;97.64;100305.13;6331515;22;19993;-87
2022/04/15 16:10:53;;;;;;;;;;;;;;;4.58;97.14;100306.91;6279325;22;20330;-84
2022/04/15 16:13:19;;;;;;;;;;;;;;;4.55;96.74;100309.56;6306565;22;20359;-82
2022/04/15 16:15:44;;;;;;;;;;;;;;;4.53;96.36;100306.94;6306430;22;19922;-84
2022/04/15 16:18:09;;;;;;;;;;;;;;;4.49;96.10;100304.34;6305107;22;19915;-83
2022/04/15 16:20:36;;;;;;;;;;;;;;;4.48;95.87;100303.50;6306588;22;19961;-84
2022/04/15 16:23:03;;;;;;;;;;;;;;;4.43;95.68;100299.16;6331176;22;20406;-83
2022/04/15 16:25:28;;;;;;;;;;;;;;;4.47;95.71;100304.38;6306522;22;19922;-82
2022/04/15 16:27:54;;;;;;;;;;;;;;;4.46;95.59;100302.63;6278913;22;19915;-84
2022/04/15 16:30:19;;;;;;;;;;;;;;;4.49;95.59;100305.22;6321523;22;19999;-85
2022/04/15 16:32:44;;;;;;;;;;;;;;;4.48;95.29;100303.50;6277559;22;19921;-83
2022/04/15 16:35:10;;;;;;;;;;;;;;;4.49;95.16;100310.47;6305007;22;19917;-83
2022/04/15 16:37:35;;;;;;;;;;;;;;;4.43;94.90;100310.53;6279330;22;20052;-83
2022/04/15 16:40:00;;;;;;;;;;;;;;;4.43;94.80;100312.28;6274317;22;19993;-82
2022/04/15 16:42:26;;;;;;;;;;;;;;;4.43;94.89;100305.28;6307022;22;20318;-82
2022/04/15 16:44:51;;;;;;;;;;;;;;;4.42;94.68;100306.19;6306521;22;20318;-84
2022/04/15 16:47:16;;;;;;;;;;;;;;;4.35;94.65;100301.84;6303719;22;19915;-82
2022/04/15 16:49:41;;;;;;;;;;;;;;;4.36;94.50;100303.59;6279353;22;19957;-82
2022/04/15 16:52:07;;;;;;;;;;;;;;;4.42;94.87;100316.69;6303201;22;19922;-81
2022/04/15 17:00:03;;;;;;;;;;;;;;;4.36;94.55;100308.84;6306464;22;19917;-82
2022/04/15 17:02:29;;;;;;;;;;;;;;;4.38;94.20;100311.47;6277454;22;20318;-82
2022/04/15 17:04:57;;;;;;;;;;;;;;;4.34;94.00;100306.25;6279095;22;19950;-82
2022/04/15 17:07:23;;;;;;;;;;;;;;;4.30;93.88;100311.53;6279178;22;19911;-82
2022/04/15 17:09:48;;;;;;;;;;;;;;;4.34;94.14;100308.88;6306143;22;20405;-82
2022/04/15 17:12:13;;;;;;;;;;;;;;;4.35;94.38;100320.22;6306160;22;19915;-82
2022/04/15 17:14:38;;;;;;;;;;;;;;;4.38;94.48;100314.94;6305105;22;19914;-82
2022/04/15 17:17:04;;;;;;;;;;;;;;;4.42;94.52;100318.41;6304853;22;20437;-81
2022/04/15 17:19:34;;;;;;;;;;;;;;;4.36;94.12;100320.22;6306430;22;20220;-83
2022/04/15 17:21:59;;;;;;;;;;;;;;;4.34;93.89;100321.09;6304614;22;19921;-81
2022/04/15 17:24:25;;;;;;;;;;;;;;;4.32;93.89;100323.75;6278338;22;19939;-82
2022/04/15 17:26:50;;;;;;;;;;;;;;;4.35;94.05;100325.47;6299621;22;19969;-81
2022/04/15 17:29:15;;;;;;;;;;;;;;;4.33;94.00;100329.88;6300006;22;19934;-81
2022/04/15 17:31:40;;;;;;;;;;;;;;;4.34;93.90;100321.09;6302831;22;19915;-81
2022/04/15 17:34:06;;;;;;;;;;;;;;;4.33;94.07;100328.09;6322987;22;19925;-81
2022/04/15 17:36:31;;;;;;;;;;;;;;;4.35;94.15;100322.84;6306262;22;19915;-82
2022/04/15 17:38:56;;;;;;;;;;;;;;;4.31;93.95;100323.78;6306390;22;19911;-83
2022/04/15 17:41:22;;;;;;;;;;;;;;;4.28;93.83;100329.03;6306385;22;19921;-82
2022/04/15 17:43:48;;;;;;;;;;;;;;;4.27;93.88;100327.28;6305658;22;19980;-82
2022/04/15 17:46:13;;;;;;;;;;;;;;;4.27;93.90;100341.28;6297216;22;19964;-82
2022/04/15 17:48:40;;;;;;;;;;;;;;;4.29;93.80;100343.88;6271264;22;20373;-83
2022/04/15 17:51:05;;;;;;;;;;;;;;;4.30;93.95;100348.25;6296637;22;20340;-83
2022/04/15 17:53:30;;;;;;;;;;;;;;;4.29;94.04;100347.41;6277466;22;19911;-83
2022/04/15 17:55:56;;;;;;;;;;;;;;;4.30;94.07;100350.88;6304641;22;19937;-81
2022/04/15 17:58:21;;;;;;;;;;;;;;;4.33;94.33;100354.34;6278121;22;19941;-81
2022/04/15 18:00:48;;;;;;;;;;;;;;;4.33;94.33;100356.97;6305949;22;19918;-82
2022/04/15 18:03:13;;;;;;;;;;;;;;;4.31;94.10;100368.38;6273139;22;19922;-83
2022/04/15 18:05:38;;;;;;;;;;;;;;;4.25;93.79;100358.78;6277098;22;19911;-83
2022/04/15 18:08:07;;;;;;;;;;;;;;;4.22;93.48;100355.31;6277833;22;20179;-82
2022/04/15 18:10:32;;;;;;;;;;;;;;;4.24;93.34;100358.81;6307369;22;19921;-81
2022/04/15 18:12:57;;;;;;;;;;;;;;;4.21;93.47;100371.94;6307748;22;19911;-82
2022/04/15 18:15:23;;;;;;;;;;;;;;;4.27;93.66;100369.28;6279363;22;19964;-82
2022/04/15 18:17:48;;;;;;;;;;;;;;;4.24;93.47;100374.53;6305696;22;19911;-83
2022/04/15 18:20:14;;;;;;;;;;;;;;;4.21;93.38;100372.78;6279956;22;19915;-82
2022/04/15 18:22:39;;;;;;;;;;;;;;;4.19;93.15;100374.56;6279410;22;19934;-81
2022/04/15 18:25:05;;;;;;;;;;;;;;;4.41;93.20;100371.78;6279641;22;20326;-84
2022/04/15 18:27:30;;;;;;;;;;;;;;;4.30;93.16;100382.38;6278849;22;19911;-85
2022/04/15 18:29:55;;;;;;;;;;;;;;;4.23;93.24;100380.66;6279917;22;20078;-82
2022/04/15 18:32:20;;;;;;;;;;;;;;;4.19;93.15;100383.31;6277284;22;19942;-83
2022/04/15 18:34:49;;;;;;;;;;;;;;;4.21;93.22;100383.28;6307134;22;19918;-83
2022/04/15 18:37:18;;;;;;;;;;;;;;;4.18;92.95;100388.59;6278585;22;19919;-83
2022/04/15 18:39:44;;;;;;;;;;;;;;;4.23;93.11;100396.41;6307019;22;19911;-82
2022/04/15 18:42:10;;;;;;;;;;;;;;;4.15;93.16;100389.47;6305143;22;19919;-83
2022/04/15 18:44:35;;;;;;;;;;;;;;;4.12;92.76;100397.34;6306377;22;20286;-81
2022/04/15 18:47:01;;;;;;;;;;;;;;;4.12;92.75;100393.88;6305082;22;19915;-81
2022/04/15 18:52:40;;;;;;;;;;;;;;;4.08;92.61;100406.09;6152594;23;19987;-81
2022/04/15 18:55:07;;;;;;;;;;;;;;;4.08;92.55;100411.34;6151793;23;20288;-83
2022/04/15 18:57:33;;;;;;;;;;;;;;;4.08;92.50;100406.09;6217918;22;19917;-83
2022/04/15 18:59:58;;;;;;;;;;;;;;;4.06;92.45;100412.25;6271834;22;19919;-83
2022/04/15 19:02:24;;;;;;;;;;;;;;;4.01;92.25;100412.28;6272547;22;19965;-83
2022/04/15 19:04:49;;;;;;;;;;;;;;;4.01;92.17;100433.28;6305821;22;20267;-82
2022/04/15 19:07:14;;;;;;;;;;;;;;;3.99;92.18;100435.03;6278001;22;19915;-81
2022/04/15 19:09:41;;;;;;;;;;;;;;;4.00;92.21;100442.00;6278212;22;19918;-81
2022/04/15 19:12:06;;;;;;;;;;;;;;;3.98;92.31;100439.41;6300716;22;19914;-81
2022/04/15 19:14:31;;;;;;;;;;;;;;;4.01;92.36;100443.75;6304952;22;19921;-83
2022/04/15 19:16:57;;;;;;;;;;;;;;;4.04;92.30;100450.72;6305125;22;19958;-82
2022/04/15 19:19:22;;;;;;;;;;;;;;;4.00;92.46;100455.13;6277680;22;19918;-82
2022/04/15 19:21:47;;;;;;;;;;;;;;;4.02;92.42;100460.34;6303428;22;20432;-82
2022/04/15 19:24:13;;;;;;;;;;;;;;;4.00;92.32;100458.63;6300993;22;19910;-84
2022/04/15 19:26:38;;;;;;;;;;;;;;;3.99;92.37;100456.88;6300341;22;19994;-84
2022/04/15 19:29:04;;;;;;;;;;;;;;;4.73;93.44;100455.50;6304628;22;20001;-77
2022/04/15 19:31:30;;;;;;;;;;;;;;;4.54;94.29;100465.28;6304895;22;19919;-82
2022/04/15 19:33:55;;;;;;;;;;;;;;;4.27;94.51;100466.34;6306089;22;19968;-86
2022/04/15 19:36:20;;;;;;;;;;;;;;;4.17;94.28;100466.38;6305077;22;19972;-85
2022/04/15 19:38:46;;;;;;;;;;;;;;;4.10;94.21;100463.81;6306167;22;19922;-86
2022/04/15 19:41:14;;;;;;;;;;;;;;;4.05;94.01;100466.44;6303922;22;20389;-86
2022/04/15 19:43:39;;;;;;;;;;;;;;;4.06;93.73;100462.09;6278397;22;19914;-88
2022/04/15 19:46:05;;;;;;;;;;;;;;;4.01;93.70;100469.97;6300617;22;19922;-88
2022/04/15 19:48:30;;;;;;;;;;;;;;;4.01;93.50;100469.97;6305989;22;19915;-88
2022/04/15 19:50:55;;;;;;;;;;;;;;;4.01;93.26;100469.97;6279469;22;19915;-85
2022/04/15 19:53:23;;;;;;;;;;;;;;;4.03;93.48;100469.97;6305180;22;19921;-84
2022/04/15 19:55:48;;;;;;;;;;;;;;;4.00;93.46;100474.38;6273388;22;19919;-83
2022/04/15 20:01:03;;;;;;;;;;;;;;;3.96;93.51;100475.25;6305844;22;19918;-81
2022/04/15 20:03:32;;;;;;;;;;;;;;;3.98;93.50;100481.34;6304599;22;19914;-83
2022/04/15 20:05:58;;;;;;;;;;;;;;;3.95;93.48;100481.38;6306428;22;19923;-84
2022/04/15 20:08:23;;;;;;;;;;;;;;;3.97;93.32;100486.59;6306274;22;20273;-84
2022/04/15 20:10:48;;;;;;;;;;;;;;;3.96;93.45;100498.00;6304980;22;19911;-85
2022/04/15 20:13:14;;;;;;;;;;;;;;;3.93;93.31;100504.09;6304964;22;20250;-85
2022/04/15 20:15:39;;;;;;;;;;;;;;;3.95;93.58;100504.97;6304595;22;20238;-84
2022/04/15 20:18:05;;;;;;;;;;;;;;;3.94;93.49;100510.22;6304128;22;19922;-84
2022/04/15 20:20:30;;;;;;;;;;;;;;;3.94;93.47;100508.47;6306000;22;20322;-84
2022/04/15 20:22:55;;;;;;;;;;;;;;;3.93;93.41;100511.97;6306095;22;19914;-87
2022/04/15 20:25:21;;;;;;;;;;;;;;;4.57;94.44;100509.88;6305873;22;19911;-83
2022/04/15 20:27:49;;;;;;;;;;;;;;;4.29;94.23;100512.69;6304746;22;19915;-83
2022/04/15 20:30:15;;;;;;;;;;;;;;;4.12;94.05;100511.91;6305390;22;20305;-84
2022/04/15 20:32:40;;;;;;;;;;;;;;;4.09;93.72;100514.53;6277548;22;19915;-83
2022/04/15 20:35:06;;;;;;;;;;;;;;;4.07;93.73;100513.66;6305307;22;19911;-83
2022/04/15 20:37:31;;;;;;;;;;;;;;;4.05;93.81;100513.66;6303995;22;19951;-84
2022/04/15 20:39:57;;;;;;;;;;;;;;;4.03;93.55;100514.56;6301413;22;19995;-85
2022/04/15 20:42:23;;;;;;;;;;;;;;;4.00;93.34;100513.72;6302685;22;20208;-83
2022/04/15 20:44:48;;;;;;;;;;;;;;;4.02;93.30;100516.31;6303625;22;19938;-84
2022/04/15 20:47:15;;;;;;;;;;;;;;;3.99;93.18;100516.34;6303141;22;20081;-84
2022/04/15 20:49:59;;;;;;;;;;;;;;;3.97;93.00;100521.59;6304829;22;19911;-84
2022/04/15 20:52:25;;;;;;;;;;;;;;;3.96;92.84;100524.22;6304211;22;20361;-85
2022/04/15 20:54:50;;;;;;;;;;;;;;;3.96;92.82;100519.84;6301707;22;19911;-83
2022/04/15 20:57:16;;;;;;;;;;;;;;;3.94;92.76;100515.47;6304168;22;19915;-83
2022/04/15 20:59:42;;;;;;;;;;;;;;;3.96;92.90;100521.59;6305057;22;19994;-86
2022/04/15 21:02:07;;;;;;;;;;;;;;;3.95;92.75;100519.84;6302112;22;19994;-83
2022/04/15 21:04:33;;;;;;;;;;;;;;;3.96;92.39;100524.22;6305127;22;20222;-82
2022/04/15 21:06:58;;;;;;;;;;;;;;;3.95;92.35;100535.56;6306066;22;20275;-84
2022/04/15 21:09:23;;;;;;;;;;;;;;;3.93;92.30;100537.34;6304499;22;19961;-82
2022/04/15 21:11:49;;;;;;;;;;;;;;;3.93;92.39;100534.72;6302407;22;19960;-85
2022/04/15 21:14:14;;;;;;;;;;;;;;;3.94;92.40;100546.91;6305623;22;19997;-81
2022/04/15 21:16:40;;;;;;;;;;;;;;;3.97;92.53;100550.44;6302943;22;20288;-83
2022/04/15 21:19:05;;;;;;;;;;;;;;;3.95;92.50;100549.53;6305552;22;20418;-81
2022/04/15 21:21:30;;;;;;;;;;;;;;;3.95;92.53;100557.41;6303635;22;20315;-81
2022/04/15 21:23:56;;;;;;;;;;;;;;;3.96;92.40;100550.44;6305184;22;19921;-83
2022/04/15 21:26:35;;;;;;;;;;;;;;;3.92;92.47;100554.78;6302643;22;19911;-82
2022/04/15 21:29:04;;;;;;;;;;;;;;;3.93;92.40;100558.31;6304023;22;19911;-82
2022/04/15 21:31:37;;;;;;;;;;;;;;;3.92;92.56;100564.41;6303213;22;19939;-81
2022/04/15 21:34:03;;;;;;;;;;;;;;;3.96;92.43;100561.78;6328708;22;19949;-82
2022/04/15 21:36:28;;;;;;;;;;;;;;;3.92;92.42;100561.81;6307931;22;19914;-85
2022/04/15 21:38:53;;;;;;;;;;;;;;;3.91;92.20;100567.91;6336601;22;19967;-84
2022/04/15 21:41:18;;;;;;;;;;;;;;;3.91;92.12;100575.78;6307932;22;19959;-83
2022/04/15 21:43:43;;;;;;;;;;;;;;;3.93;91.99;100572.28;6308425;22;20032;-82
2022/04/15 21:46:09;;;;;;;;;;;;;;;3.94;92.13;100573.16;6337688;22;19914;-83
2022/04/15 21:48:34;;;;;;;;;;;;;;;3.91;92.00;100573.16;6310235;22;19921;-84
2022/04/15 21:53:44;;;;;;;;;;;;;;;3.89;91.84;100580.16;6338088;22;19937;-83
2022/04/15 21:56:11;;;;;;;;;;;;;;;3.89;91.87;100574.91;6303647;22;20317;-84
2022/04/15 21:58:36;;;;;;;;;;;;;;;3.89;91.97;100586.25;6337241;22;19918;-83
2022/04/15 22:01:03;;;;;;;;;;;;;;;3.91;91.87;100584.53;6310808;22;19910;-83
2022/04/15 22:03:32;;;;;;;;;;;;;;;3.95;92.30;100595.88;6336678;22;19910;-83
2022/04/15 22:05:57;;;;;;;;;;;;;;;3.93;92.02;100593.25;6337699;22;19910;-83
2022/04/15 22:08:22;;;;;;;;;;;;;;;3.91;92.00;100594.13;6338262;22;20039;-81
2022/04/15 22:10:48;;;;;;;;;;;;;;;3.98;92.29;100599.34;6338114;22;20326;-83
2022/04/15 22:13:16;;;;;;;;;;;;;;;3.99;92.37;100602.88;6337947;22;19946;-82
2022/04/15 22:15:42;;;;;;;;;;;;;;;3.96;92.23;100603.75;6309696;22;20215;-84
2022/04/15 22:18:07;;;;;;;;;;;;;;;3.96;92.10;100602.88;6308930;22;19918;-84
2022/04/15 22:20:33;;;;;;;;;;;;;;;3.95;91.93;100601.13;6310744;22;19911;-83
2022/04/15 22:22:58;;;;;;;;;;;;;;;3.97;92.03;100615.09;6338093;22;20326;-82
2022/04/15 22:25:23;;;;;;;;;;;;;;;3.95;92.00;100616.84;6336697;22;19918;-82
2022/04/15 22:27:50;;;;;;;;;;;;;;;3.92;91.80;100607.25;6310290;22;19907;-85
2022/04/15 22:30:15;;;;;;;;;;;;;;;3.93;91.44;100614.25;6337070;22;19914;-82
2022/04/15 22:32:41;;;;;;;;;;;;;;;3.92;91.35;100620.34;6335834;22;20212;-81
2022/04/15 22:35:07;;;;;;;;;;;;;;;3.91;91.24;100615.09;6309910;22;19915;-81
2022/04/15 22:37:33;;;;;;;;;;;;;;;3.90;91.23;100613.38;6337329;22;20219;-83
2022/04/15 22:39:58;;;;;;;;;;;;;;;3.86;91.17;100622.13;6309306;22;19918;-82
2022/04/15 22:42:23;;;;;;;;;;;;;;;3.95;91.12;100624.72;6338174;22;19919;-83
2022/04/15 22:44:48;;;;;;;;;;;;;;;3.88;90.92;100620.34;6302391;22;19938;-81
2022/04/15 22:48:04;;;;;;;;;;;;;;;3.87;90.88;100621.25;6335835;22;19919;-82
2022/04/15 22:50:03;;;;;;;;;;;;;;;3.86;90.80;100623.00;6329636;22;19911;-82
2022/04/15 22:52:28;;;;;;;;;;;;;;;3.88;90.73;100630.84;6337558;22;20326;-84
2022/04/15 22:57:37;;;;;;;;;;;;;;;3.86;90.85;100632.59;6337360;22;19956;-82
2022/04/15 23:00:04;;;;;;;;;;;;;;;3.88;90.71;100633.47;6337112;22;19915;-81
2022/04/15 23:02:29;;;;;;;;;;;;;;;3.87;90.90;100631.75;6307959;22;19985;-82
2022/04/15 23:04:58;;;;;;;;;;;;;;;3.87;90.75;100642.22;6338099;22;19953;-87
2022/04/15 23:07:23;;;;;;;;;;;;;;;3.85;90.73;100644.00;6310477;22;19915;-82
2022/04/15 23:09:49;;;;;;;;;;;;;;;3.85;90.84;100638.75;6337736;22;20346;-83
2022/04/15 23:12:14;;;;;;;;;;;;;;;3.86;90.63;100637.84;6302070;22;19914;-83
2022/04/15 23:14:39;;;;;;;;;;;;;;;3.86;90.76;100643.09;6302365;22;19963;-83
2022/04/15 23:17:05;;;;;;;;;;;;;;;3.84;90.57;100640.47;6328426;22;20322;-82
2022/04/15 23:19:34;;;;;;;;;;;;;;;3.83;90.50;100641.38;6309723;22;20379;-82
2022/04/15 23:22:01;;;;;;;;;;;;;;;3.82;90.28;100637.84;6308959;22;19922;-84
2022/04/15 23:24:30;;;;;;;;;;;;;;;3.82;90.35;100643.09;6337899;22;19914;-86
2022/04/15 23:26:55;;;;;;;;;;;;;;;3.82;90.17;100643.09;6309753;22;19914;-82
2022/04/15 23:29:22;;;;;;;;;;;;;;;3.84;90.14;100640.47;6337546;22;19918;-82
2022/04/15 23:31:47;;;;;;;;;;;;;;;3.79;89.88;100643.09;6328749;22;19921;-83
2022/04/15 23:34:12;;;;;;;;;;;;;;;3.81;89.89;100641.38;6306855;22;19914;-82
2022/04/15 23:36:39;;;;;;;;;;;;;;;3.79;89.76;100643.09;6300833;22;20006;-82
2022/04/15 23:39:04;;;;;;;;;;;;;;;3.80;89.76;100650.09;6337328;22;19997;-82
2022/04/15 23:41:30;;;;;;;;;;;;;;;3.79;89.75;100643.09;6308802;22;20456;-86